createdAt,value
2023-11-30T00:00:03.900Z,98628.88
2023-11-30T00:03:12.938Z,98618.74
2023-11-30T00:06:00.929Z,98620.09
2023-11-30T00:08:48.977Z,98619.38
2023-11-30T00:11:36.714Z,98617.66
2023-11-30T00:14:24.214Z,98615.05
2023-11-30T00:17:12.291Z,98613.48
2023-11-30T00:20:00.082Z,98610.60
2023-11-30T00:22:48.370Z,98607.48
2023-11-30T00:25:35.927Z,98604.42
2023-11-30T00:28:23.449Z,98605.27
2023-11-30T00:31:11.111Z,98607.47
2023-11-30T00:33:58.989Z,98612.34
2023-11-30T00:36:46.661Z,98617.27
2023-11-30T00:39:35.000Z,98617.21
2023-11-30T00:42:22.855Z,98617.58
2023-11-30T00:45:11.458Z,98616.89
2023-11-30T00:47:59.562Z,98617.11
2023-11-30T00:50:47.325Z,98608.09
2023-11-30T00:53:35.213Z,98613.42
2023-11-30T00:56:22.884Z,98609.81
2023-11-30T00:59:10.433Z,98609.91
2023-11-30T01:01:57.914Z,98613.67
2023-11-30T01:04:45.690Z,98613.76
2023-11-30T01:07:33.481Z,98613.41
2023-11-30T01:10:20.931Z,98610.09
2023-11-30T01:13:09.269Z,98609.81
2023-11-30T01:15:57.084Z,98612.78
2023-11-30T01:18:45.084Z,98610.30
2023-11-30T01:21:33.255Z,98612.73
2023-11-30T01:24:21.137Z,98614.70
2023-11-30T01:27:09.255Z,98603.19
2023-11-30T01:29:56.964Z,98609.90
2023-11-30T01:32:44.867Z,98605.09
2023-11-30T01:35:32.711Z,98609.33
2023-11-30T01:38:20.412Z,98608.03
2023-11-30T01:41:08.763Z,98605.48
2023-11-30T01:43:56.261Z,98613.54
2023-11-30T01:46:44.036Z,98608.31
2023-11-30T01:49:32.520Z,98607.66
2023-11-30T01:52:20.399Z,98606.96
2023-11-30T01:55:10.835Z,98605.45
2023-11-30T01:57:59.426Z,98597.93
2023-11-30T02:00:48.822Z,98599.25
2023-11-30T02:03:38.648Z,98601.25
2023-11-30T02:06:26.835Z,98599.04
2023-11-30T02:09:16.279Z,98603.56
2023-11-30T02:12:04.299Z,98603.92
2023-11-30T02:14:52.348Z,98604.90
2023-11-30T02:17:40.468Z,98604.67
2023-11-30T02:20:28.120Z,98602.06
2023-11-30T02:23:16.025Z,98602.31
2023-11-30T02:26:03.969Z,98598.69
2023-11-30T02:28:51.785Z,98600.95
2023-11-30T02:31:39.594Z,98597.80
2023-11-30T02:34:27.379Z,98595.55
2023-11-30T02:37:14.867Z,98592.29
2023-11-30T02:40:02.868Z,98590.20
2023-11-30T02:42:50.306Z,98593.20
2023-11-30T02:45:37.749Z,98592.95
2023-11-30T02:48:25.314Z,98584.90
2023-11-30T02:51:13.609Z,98585.66
2023-11-30T02:54:01.306Z,98580.66
2023-11-30T02:56:49.021Z,98578.48
2023-11-30T02:59:36.688Z,98576.95
2023-11-30T03:02:26.713Z,98580.19
2023-11-30T03:05:15.863Z,98580.42
2023-11-30T03:08:03.276Z,98578.79
2023-11-30T03:10:52.362Z,98572.09
2023-11-30T03:13:41.812Z,98579.24
2023-11-30T03:16:30.047Z,98574.98
2023-11-30T03:19:18.280Z,98573.21
2023-11-30T03:22:05.908Z,98568.23
2023-11-30T03:24:54.146Z,98564.13
2023-11-30T03:27:43.167Z,98563.59
2023-11-30T03:30:31.658Z,98565.52
2023-11-30T03:33:19.232Z,98564.48
2023-11-30T03:36:07.658Z,98558.66
2023-11-30T03:38:57.175Z,98554.92
2023-11-30T03:41:44.862Z,98559.52
2023-11-30T03:44:33.716Z,98557.67
2023-11-30T03:47:21.326Z,98551.52
2023-11-30T03:50:09.613Z,98555.98
2023-11-30T03:52:58.265Z,98554.20
2023-11-30T03:55:46.368Z,98558.59
2023-11-30T03:58:34.135Z,98553.95
2023-11-30T04:01:24.076Z,98555.59
2023-11-30T04:04:11.878Z,98552.86
2023-11-30T04:06:59.977Z,98550.14
2023-11-30T04:09:48.732Z,98551.45
2023-11-30T04:12:36.528Z,98551.77
2023-11-30T04:15:24.737Z,98549.41
2023-11-30T04:18:13.375Z,98551.41
2023-11-30T04:21:01.480Z,98544.35
2023-11-30T04:23:49.117Z,98545.71
2023-11-30T04:26:37.345Z,98543.66
2023-11-30T04:29:25.110Z,98543.85
2023-11-30T04:32:13.084Z,98545.85
2023-11-30T04:35:01.046Z,98546.15
2023-11-30T04:37:48.983Z,98548.39
2023-11-30T04:40:36.659Z,98541.02
2023-11-30T04:43:26.765Z,98545.70
2023-11-30T04:46:15.696Z,98540.30
2023-11-30T04:49:03.333Z,98544.50
2023-11-30T04:51:51.390Z,98545.94
2023-11-30T04:54:39.438Z,98549.99
2023-11-30T04:57:27.495Z,98551.08
2023-11-30T05:00:16.179Z,98547.71
2023-11-30T05:03:04.166Z,98542.25
2023-11-30T05:05:52.645Z,98538.92
2023-11-30T05:08:40.092Z,98530.02
2023-11-30T05:11:27.595Z,98530.53
2023-11-30T05:14:15.471Z,98526.70
2023-11-30T05:17:04.102Z,98526.44
2023-11-30T05:19:51.662Z,98530.13
2023-11-30T05:22:39.462Z,98531.00
2023-11-30T05:25:27.259Z,98526.64
2023-11-30T05:28:14.877Z,98535.01
2023-11-30T05:31:02.756Z,98535.27
2023-11-30T05:33:50.555Z,98541.05
2023-11-30T05:36:37.973Z,98539.24
2023-11-30T05:39:25.630Z,98541.48
2023-11-30T05:42:13.575Z,98536.40
2023-11-30T05:45:01.383Z,98537.80
2023-11-30T05:47:49.219Z,98536.49
2023-11-30T05:50:37.013Z,98532.84
2023-11-30T05:53:24.809Z,98535.21
2023-11-30T05:56:12.442Z,98534.23
2023-11-30T05:59:00.251Z,98531.25
2023-11-30T06:01:49.673Z,98539.43
2023-11-30T06:04:39.882Z,98538.80
2023-11-30T06:07:27.705Z,98544.73
2023-11-30T06:10:16.441Z,98547.48
2023-11-30T06:13:04.654Z,98545.75
2023-11-30T06:15:53.925Z,98548.23
2023-11-30T06:18:42.092Z,98550.11
2023-11-30T06:21:29.930Z,98548.77
2023-11-30T06:24:17.835Z,98550.52
2023-11-30T06:27:05.828Z,98555.73
2023-11-30T06:29:54.030Z,98562.03
2023-11-30T06:32:41.650Z,98564.19
2023-11-30T06:35:29.116Z,98561.89
2023-11-30T06:38:17.165Z,98560.95
2023-11-30T06:41:14.352Z,98564.20
2023-11-30T06:44:02.370Z,98561.84
2023-11-30T06:46:50.531Z,98559.06
2023-11-30T06:49:38.609Z,98558.73
2023-11-30T06:52:26.399Z,98557.11
2023-11-30T06:55:14.178Z,98560.41
2023-11-30T06:58:02.239Z,98558.48
2023-11-30T07:00:51.134Z,98560.83
2023-11-30T07:03:42.797Z,98565.42
2023-11-30T07:06:31.953Z,98568.52
2023-11-30T07:09:19.477Z,98566.10
2023-11-30T07:12:07.717Z,98563.88
2023-11-30T07:14:55.528Z,98567.11
2023-11-30T07:17:43.188Z,98557.89
2023-11-30T07:20:31.638Z,98571.69
2023-11-30T07:23:20.068Z,98568.44
2023-11-30T07:26:15.500Z,98570.59
2023-11-30T07:29:03.296Z,98568.36
2023-11-30T07:31:52.542Z,98569.20
2023-11-30T07:34:40.302Z,98568.08
2023-11-30T07:37:27.975Z,98569.88
2023-11-30T07:40:16.000Z,98572.38
2023-11-30T07:43:03.329Z,98572.25
2023-11-30T07:45:51.039Z,98571.17
2023-11-30T07:48:38.832Z,98578.48
2023-11-30T07:51:27.034Z,98581.05
2023-11-30T07:54:14.761Z,98575.11
2023-11-30T07:57:02.536Z,98564.39
2023-11-30T07:59:50.589Z,98568.80
2023-11-30T08:02:39.338Z,98570.06
2023-11-30T08:05:27.199Z,98573.13
2023-11-30T08:08:14.884Z,98578.40
2023-11-30T08:11:04.439Z,98577.82
2023-11-30T08:13:52.663Z,98582.25
2023-11-30T08:16:41.831Z,98581.52
2023-11-30T08:19:29.662Z,98581.13
2023-11-30T08:22:17.220Z,98585.45
2023-11-30T08:25:06.535Z,98583.32
2023-11-30T08:27:55.095Z,98571.48
2023-11-30T08:30:43.643Z,98577.28
2023-11-30T08:33:31.453Z,98585.38
2023-11-30T08:36:19.327Z,98582.56
2023-11-30T08:39:07.257Z,98588.23
2023-11-30T08:41:55.896Z,98588.33
2023-11-30T08:44:43.623Z,98584.98
2023-11-30T08:47:31.105Z,98583.11
2023-11-30T08:50:19.239Z,98586.45
2023-11-30T08:53:06.897Z,98589.39
2023-11-30T08:55:54.796Z,98592.23
2023-11-30T08:58:42.859Z,98597.08
2023-11-30T09:01:31.072Z,98596.72
2023-11-30T09:04:19.382Z,98594.41
2023-11-30T09:07:07.145Z,98594.37
2023-11-30T09:09:55.273Z,98590.16
2023-11-30T09:12:43.062Z,98594.19
2023-11-30T09:15:35.255Z,98588.14
2023-11-30T09:18:23.005Z,98582.91
2023-11-30T09:21:10.711Z,98578.14
2023-11-30T09:23:59.918Z,98573.35
2023-11-30T09:26:49.268Z,98561.30
2023-11-30T09:29:38.197Z,98557.98
2023-11-30T09:32:27.486Z,98550.27
2023-11-30T09:35:15.929Z,98546.14
2023-11-30T09:38:03.682Z,98544.27
2023-11-30T09:40:53.285Z,98546.70
2023-11-30T09:43:40.896Z,98539.52
2023-11-30T09:46:28.699Z,98551.45
2023-11-30T09:49:16.499Z,98550.36
2023-11-30T09:52:04.393Z,98554.02
2023-11-30T09:54:56.414Z,98558.19
2023-11-30T09:57:44.060Z,98557.20
2023-11-30T10:00:31.755Z,98558.21
2023-11-30T10:03:21.302Z,98556.17
2023-11-30T10:06:09.610Z,98562.94
2023-11-30T10:09:03.168Z,98560.76
2023-11-30T10:11:50.852Z,98553.10
2023-11-30T10:14:39.022Z,98549.02
2023-11-30T10:17:29.641Z,98546.02
2023-11-30T10:20:20.001Z,98540.55
2023-11-30T10:23:15.216Z,98536.76
2023-11-30T10:26:03.930Z,98541.86
2023-11-30T10:28:56.371Z,98540.58
2023-11-30T10:31:45.062Z,98540.81
2023-11-30T10:34:43.851Z,98542.98
2023-11-30T10:37:35.592Z,98535.77
2023-11-30T10:40:25.763Z,98534.89
2023-11-30T10:43:13.601Z,98535.73
2023-11-30T10:46:08.710Z,98535.12
2023-11-30T10:48:56.595Z,98529.79
2023-11-30T10:51:45.197Z,98536.74
2023-11-30T10:54:53.710Z,98537.90
2023-11-30T10:57:43.933Z,98539.01
2023-11-30T11:00:36.011Z,98532.96
2023-11-30T11:03:26.050Z,98539.61
2023-11-30T11:06:16.291Z,98535.21
2023-11-30T11:09:09.542Z,98533.33
2023-11-30T11:12:02.630Z,98529.98
2023-11-30T11:14:51.184Z,98530.94
2023-11-30T11:17:50.675Z,98534.05
2023-11-30T11:20:38.273Z,98529.70
2023-11-30T11:23:35.708Z,98529.06
2023-11-30T11:26:25.566Z,98528.90
2023-11-30T11:29:24.177Z,98524.98
2023-11-30T11:32:21.268Z,98526.47
2023-11-30T11:35:12.037Z,98523.98
2023-11-30T11:38:00.085Z,98523.77
2023-11-30T11:40:48.034Z,98525.33
2023-11-30T11:43:35.832Z,98519.80
2023-11-30T11:46:23.826Z,98518.38
2023-11-30T11:49:11.853Z,98516.21
2023-11-30T11:51:59.710Z,98508.33
2023-11-30T11:54:47.314Z,98507.96
2023-11-30T11:57:46.108Z,98504.65
2023-11-30T12:00:35.017Z,98499.91
2023-11-30T12:03:22.681Z,98499.47
2023-11-30T12:06:11.218Z,98496.00
2023-11-30T12:09:13.886Z,98502.95
2023-11-30T12:12:02.286Z,98496.66
2023-11-30T12:14:50.132Z,98498.42
2023-11-30T12:17:39.692Z,98501.23
2023-11-30T12:20:27.512Z,98500.73
2023-11-30T12:23:15.406Z,98491.82
2023-11-30T12:26:03.162Z,98501.23
2023-11-30T12:28:51.926Z,98501.17
2023-11-30T12:31:39.964Z,98504.69
2023-11-30T12:34:29.148Z,98508.14
2023-11-30T12:37:16.747Z,98505.77
2023-11-30T12:40:05.421Z,98506.47
2023-11-30T12:42:53.390Z,98508.00
2023-11-30T12:45:42.840Z,98506.66
2023-11-30T12:48:30.454Z,98504.71
2023-11-30T12:51:18.073Z,98503.28
2023-11-30T12:54:05.833Z,98498.83
2023-11-30T12:56:53.529Z,98501.42
2023-11-30T12:59:41.521Z,98502.34
2023-11-30T13:02:29.371Z,98503.27
2023-11-30T13:05:17.754Z,98497.85
2023-11-30T13:08:06.415Z,98496.00
2023-11-30T13:10:53.812Z,98499.06
2023-11-30T13:13:42.662Z,98498.15
2023-11-30T13:16:32.906Z,98495.05
2023-11-30T13:19:24.576Z,98489.84
2023-11-30T13:22:12.971Z,98490.06
2023-11-30T13:25:00.767Z,98494.04
2023-11-30T13:27:49.001Z,98496.80
2023-11-30T13:30:36.927Z,98499.26
2023-11-30T13:33:24.769Z,98495.08
2023-11-30T13:36:13.232Z,98493.63
2023-11-30T13:39:01.773Z,98489.29
2023-11-30T13:41:49.685Z,98496.59
2023-11-30T13:44:37.247Z,98502.92
2023-11-30T13:47:24.878Z,98509.59
2023-11-30T13:50:20.747Z,98513.92
2023-11-30T13:53:18.345Z,98514.22
2023-11-30T13:56:06.653Z,98513.80
2023-11-30T13:58:54.832Z,98520.65
2023-11-30T14:01:43.134Z,98521.92
2023-11-30T14:04:31.178Z,98519.62
2023-11-30T14:07:18.826Z,98515.63
2023-11-30T14:10:09.625Z,98513.10
2023-11-30T14:12:57.173Z,98521.13
2023-11-30T14:15:44.901Z,98516.19
2023-11-30T14:18:33.027Z,98519.88
2023-11-30T14:21:20.770Z,98521.52
2023-11-30T14:24:09.204Z,98523.98
2023-11-30T14:26:58.034Z,98524.32
2023-11-30T14:29:45.560Z,98529.27
2023-11-30T14:32:33.672Z,98528.52
2023-11-30T14:35:21.350Z,98535.65
2023-11-30T14:38:09.374Z,98537.31
2023-11-30T14:40:57.401Z,98537.84
2023-11-30T14:43:45.075Z,98535.80
2023-11-30T14:46:33.054Z,98532.10
2023-11-30T14:49:20.748Z,98525.63
2023-11-30T14:52:08.823Z,98531.14
2023-11-30T14:54:56.794Z,98536.67
2023-11-30T14:57:45.063Z,98538.46
2023-11-30T15:00:35.228Z,98539.86
2023-11-30T15:03:22.639Z,98541.75
2023-11-30T15:06:10.571Z,98531.56
2023-11-30T15:08:58.548Z,98526.40
2023-11-30T15:11:46.409Z,98524.58
2023-11-30T15:14:34.285Z,98523.27
2023-11-30T15:17:21.825Z,98520.27
2023-11-30T15:20:11.785Z,98520.69
2023-11-30T15:22:59.841Z,98528.90
2023-11-30T15:25:47.988Z,98529.38
2023-11-30T15:28:35.685Z,98526.77
2023-11-30T15:31:24.843Z,98526.91
2023-11-30T15:34:12.823Z,98527.85
2023-11-30T15:37:00.654Z,98522.48
2023-11-30T15:39:48.946Z,98522.61
2023-11-30T15:42:37.730Z,98519.38
2023-11-30T15:45:27.427Z,98522.17
2023-11-30T15:48:16.338Z,98523.83
2023-11-30T15:51:04.855Z,98521.77
2023-11-30T15:53:52.826Z,98520.05
2023-11-30T15:56:40.870Z,98516.83
2023-11-30T15:59:28.506Z,98514.35
2023-11-30T16:02:16.642Z,98515.46
2023-11-30T16:05:05.363Z,98515.69
2023-11-30T16:07:53.143Z,98515.14
2023-11-30T16:10:41.209Z,98514.77
2023-11-30T16:13:29.263Z,98515.92
2023-11-30T16:16:17.254Z,98520.79
2023-11-30T16:19:04.970Z,98521.38
2023-11-30T16:21:53.538Z,98519.76
2023-11-30T16:24:41.302Z,98518.14
2023-11-30T16:27:30.657Z,98519.94
2023-11-30T16:30:19.767Z,98522.45
2023-11-30T16:33:07.597Z,98520.41
2023-11-30T16:35:55.547Z,98516.05
2023-11-30T16:38:43.616Z,98513.83
2023-11-30T16:41:31.492Z,98518.70
2023-11-30T16:44:19.337Z,98521.21
2023-11-30T16:47:07.479Z,98524.06
2023-11-30T16:49:55.150Z,98521.88
2023-11-30T16:52:43.834Z,98519.65
2023-11-30T16:55:31.732Z,98518.28
2023-11-30T16:58:19.365Z,98516.53
2023-11-30T17:01:09.099Z,98518.05
2023-11-30T17:03:57.075Z,98517.99
2023-11-30T17:06:44.808Z,98515.38
2023-11-30T17:09:34.216Z,98521.69
2023-11-30T17:12:22.982Z,98519.64
2023-11-30T17:15:10.966Z,98519.91
2023-11-30T17:17:58.760Z,98518.25
2023-11-30T17:20:46.651Z,98516.77
2023-11-30T17:23:34.493Z,98511.89
2023-11-30T17:26:22.290Z,98505.97
2023-11-30T17:29:09.944Z,98507.32
2023-11-30T17:31:57.998Z,98505.55
2023-11-30T17:34:45.855Z,98502.52
2023-11-30T17:37:33.785Z,98499.54
2023-11-30T17:40:21.711Z,98501.33
2023-11-30T17:43:09.604Z,98502.83
2023-11-30T17:45:57.822Z,98508.26
2023-11-30T17:48:46.543Z,98509.91
2023-11-30T17:51:34.566Z,98507.23
2023-11-30T17:54:22.390Z,98503.84
2023-11-30T17:57:10.866Z,98502.63
2023-11-30T17:59:59.024Z,98503.06
2023-11-30T18:02:46.659Z,98507.21
2023-11-30T18:05:34.647Z,98503.96
2023-11-30T18:08:23.349Z,98506.72
2023-11-30T18:11:11.056Z,98506.88
2023-11-30T18:13:59.055Z,98513.00
2023-11-30T18:16:47.077Z,98513.48
2023-11-30T18:19:34.738Z,98514.96
2023-11-30T18:22:22.387Z,98515.52
2023-11-30T18:25:10.585Z,98511.63
2023-11-30T18:27:58.116Z,98509.51
2023-11-30T18:30:46.711Z,98510.98
2023-11-30T18:33:34.647Z,98506.91
2023-11-30T18:36:22.614Z,98504.33
2023-11-30T18:39:10.382Z,98501.65
2023-11-30T18:41:58.293Z,98495.64
2023-11-30T18:44:46.133Z,98494.48
2023-11-30T18:47:33.611Z,98497.50
2023-11-30T18:50:21.680Z,98499.43
2023-11-30T18:53:09.748Z,98500.96
2023-11-30T18:55:57.517Z,98501.59
2023-11-30T18:58:45.613Z,98501.40
2023-11-30T19:01:33.558Z,98496.05
2023-11-30T19:04:21.593Z,98492.80
2023-11-30T19:07:11.635Z,98496.98
2023-11-30T19:09:59.658Z,98495.45
2023-11-30T19:12:47.229Z,98495.27
2023-11-30T19:15:38.817Z,98499.63
2023-11-30T19:18:27.067Z,98493.68
2023-11-30T19:21:15.210Z,98495.48
2023-11-30T19:24:03.200Z,98495.31
2023-11-30T19:26:50.901Z,98492.90
2023-11-30T19:29:39.063Z,98500.91
2023-11-30T19:32:27.202Z,98496.56
2023-11-30T19:35:15.231Z,98491.46
2023-11-30T19:38:03.759Z,98488.64
2023-11-30T19:40:57.189Z,98485.89
2023-11-30T19:43:45.179Z,98484.52
2023-11-30T19:46:33.070Z,98484.91
2023-11-30T19:49:21.196Z,98480.96
2023-11-30T19:52:09.109Z,98483.87
2023-11-30T19:54:56.831Z,98481.15
2023-11-30T19:57:44.381Z,98486.08
2023-11-30T20:00:32.385Z,98488.85
2023-11-30T20:03:20.350Z,98486.56
2023-11-30T20:06:08.328Z,98483.79
2023-11-30T20:08:56.605Z,98484.20
2023-11-30T20:11:44.841Z,98485.70
2023-11-30T20:14:32.589Z,98483.89
2023-11-30T20:17:20.916Z,98482.71
2023-11-30T20:20:09.878Z,98482.29
2023-11-30T20:22:58.784Z,98485.52
2023-11-30T20:25:46.806Z,98487.27
2023-11-30T20:28:34.747Z,98482.15
2023-11-30T20:31:22.866Z,98482.11
2023-11-30T20:34:10.730Z,98480.77
2023-11-30T20:36:58.875Z,98477.98
2023-11-30T20:39:47.413Z,98479.85
2023-11-30T20:42:35.518Z,98479.89
2023-11-30T20:45:23.430Z,98476.71
2023-11-30T20:48:10.749Z,98476.09
2023-11-30T20:50:59.046Z,98474.30
2023-11-30T20:53:47.351Z,98474.95
2023-11-30T20:56:36.024Z,98476.96
2023-11-30T20:59:25.078Z,98475.65
2023-11-30T21:02:14.708Z,98480.38
2023-11-30T21:05:04.002Z,98477.54
2023-11-30T21:07:51.909Z,98476.70
2023-11-30T21:10:39.616Z,98481.67
2023-11-30T21:13:28.598Z,98484.88
2023-11-30T21:16:19.856Z,98483.58
2023-11-30T21:19:08.775Z,98484.82
2023-11-30T21:21:56.809Z,98483.83
2023-11-30T21:24:46.208Z,98477.73
2023-11-30T21:27:34.371Z,98478.66
2023-11-30T21:30:24.504Z,98476.17
2023-11-30T21:33:12.518Z,98481.96
2023-11-30T21:36:00.358Z,98481.20
2023-11-30T21:38:48.367Z,98480.71
2023-11-30T21:41:36.559Z,98481.05
2023-11-30T21:44:24.604Z,98479.73
2023-11-30T21:47:14.963Z,98482.48
2023-11-30T21:50:19.400Z,98491.59
2023-11-30T21:53:07.552Z,98487.95
2023-11-30T21:55:56.837Z,98487.35
2023-11-30T21:58:44.574Z,98486.37
2023-11-30T22:01:32.347Z,98486.58
2023-11-30T22:04:21.156Z,98492.95
2023-11-30T22:07:09.164Z,98490.21
2023-11-30T22:09:58.416Z,98491.09
2023-11-30T22:12:46.358Z,98491.33
2023-11-30T22:15:34.156Z,98489.48
2023-11-30T22:18:21.896Z,98487.55
2023-11-30T22:21:09.572Z,98485.76
2023-11-30T22:23:57.329Z,98485.89
2023-11-30T22:26:45.027Z,98486.55
2023-11-30T22:29:32.829Z,98488.54
2023-11-30T22:32:20.448Z,98486.94
2023-11-30T22:35:08.301Z,98491.82
2023-11-30T22:37:56.405Z,98491.39
2023-11-30T22:40:44.165Z,98488.59
2023-11-30T22:43:32.025Z,98486.77
2023-11-30T22:46:20.347Z,98484.48
2023-11-30T22:49:08.154Z,98486.04
2023-11-30T22:51:57.937Z,98484.67
2023-11-30T22:54:45.810Z,98482.77
2023-11-30T22:57:34.442Z,98483.27
2023-11-30T23:00:25.537Z,98486.17
2023-11-30T23:03:13.724Z,98483.82
2023-11-30T23:06:01.466Z,98485.48
2023-11-30T23:08:49.248Z,98482.59
2023-11-30T23:11:36.856Z,98485.23
2023-11-30T23:14:24.567Z,98480.98
2023-11-30T23:17:12.384Z,98484.65
2023-11-30T23:20:00.039Z,98485.71
2023-11-30T23:22:50.275Z,98490.31
2023-11-30T23:25:38.063Z,98492.70
2023-11-30T23:28:27.131Z,98486.57
2023-11-30T23:31:15.220Z,98488.52
2023-11-30T23:34:02.898Z,98482.24
2023-11-30T23:36:50.784Z,98481.91
2023-11-30T23:39:38.975Z,98484.31
2023-11-30T23:42:27.118Z,98487.75
2023-11-30T23:45:14.774Z,98487.86
2023-11-30T23:48:02.252Z,98490.47
2023-11-30T23:50:50.060Z,98489.48
2023-11-30T23:53:38.760Z,98493.95
2023-11-30T23:56:27.783Z,98489.93
2023-11-30T23:59:15.522Z,98491.11
